createdAt,value
2022-10-13T00:00:54.191Z,101589.13
2022-10-13T00:03:20.719Z,101581.88
2022-10-13T00:05:49.213Z,101581.88
2022-10-13T00:08:20.251Z,101581.59
2022-10-13T00:10:48.909Z,101586.44
2022-10-13T00:13:16.514Z,101589.38
2022-10-13T00:15:45.937Z,101582.56
2022-10-13T00:18:13.130Z,101586.81
2022-10-13T00:20:49.067Z,101580.63
2022-10-13T00:23:16.469Z,101570.31
2022-10-13T00:25:45.122Z,101569.31
2022-10-13T00:28:12.493Z,101570.41
2022-10-13T00:30:39.482Z,101569.31
2022-10-13T00:33:06.626Z,101575.59
2022-10-13T00:35:33.970Z,101581.22
2022-10-13T00:38:00.442Z,101568.94
2022-10-13T00:40:26.948Z,101570.38
2022-10-13T00:42:53.378Z,101573.53
2022-10-13T00:45:24.721Z,101567.09
2022-10-13T00:48:00.900Z,101570.50
2022-10-13T00:50:39.791Z,101572.91
2022-10-13T00:53:07.271Z,101566.75
2022-10-13T00:55:36.336Z,101565.53
2022-10-13T00:58:05.741Z,101557.16
2022-10-13T01:00:34.391Z,101558.22
2022-10-13T01:03:02.551Z,101558.97
2022-10-13T01:09:16.472Z,101563.94
2022-10-13T01:12:05.772Z,101559.06
2022-10-13T01:14:55.959Z,101560.63
2022-10-13T01:17:56.490Z,101561.94
2022-10-13T01:20:38.779Z,101555.88
2022-10-13T01:23:17.049Z,101550.16
2022-10-13T01:26:05.101Z,101554.31
2022-10-13T01:28:51.550Z,101552.31
2022-10-13T01:31:47.588Z,101547.72
2022-10-13T01:34:26.590Z,101547.34
2022-10-13T01:37:03.744Z,101546.75
2022-10-13T01:39:42.938Z,101538.25
2022-10-13T01:42:25.460Z,101538.75
2022-10-13T01:44:58.716Z,101536.06
2022-10-13T01:47:26.645Z,101529.63
2022-10-13T01:49:55.234Z,101527.59
2022-10-13T01:52:26.276Z,101524.72
2022-10-13T01:54:54.319Z,101520.91
2022-10-13T01:57:32.078Z,101522.13
2022-10-13T02:00:01.497Z,101514.72
2022-10-13T02:02:42.768Z,101516.56
2022-10-13T02:05:18.429Z,101516.94
2022-10-13T02:07:53.474Z,101512.34
2022-10-13T02:10:28.351Z,101503.28
2022-10-13T02:13:02.789Z,101506.72
2022-10-13T02:15:52.084Z,101505.97
2022-10-13T02:18:22.626Z,101508.88
2022-10-13T02:20:51.070Z,101498.13
2022-10-13T02:23:18.386Z,101496.88
2022-10-13T02:25:47.479Z,101495.81
2022-10-13T02:28:15.297Z,101497.16
2022-10-13T02:30:41.878Z,101495.97
2022-10-13T02:33:09.142Z,101498.00
2022-10-13T02:35:35.881Z,101493.25
2022-10-13T02:38:02.371Z,101479.25
2022-10-13T02:40:28.999Z,101485.22
2022-10-13T02:42:55.515Z,101479.03
2022-10-13T02:45:22.486Z,101477.94
2022-10-13T02:47:49.027Z,101471.00
2022-10-13T02:50:15.721Z,101473.53
2022-10-13T02:52:42.208Z,101476.56
2022-10-13T02:55:09.179Z,101469.78
2022-10-13T02:57:35.957Z,101469.78
2022-10-13T03:00:02.586Z,101465.16
2022-10-13T03:02:29.030Z,101472.22
2022-10-13T03:04:56.028Z,101469.66
2022-10-13T03:07:22.463Z,101465.28
2022-10-13T03:09:48.845Z,101464.66
2022-10-13T03:12:15.323Z,101460.41
2022-10-13T03:14:41.780Z,101465.75
2022-10-13T03:17:13.158Z,101459.56
2022-10-13T03:19:39.817Z,101463.44
2022-10-13T03:22:06.458Z,101464.66
2022-10-13T03:24:32.989Z,101454.47
2022-10-13T03:26:59.388Z,101458.59
2022-10-13T03:29:25.840Z,101449.81
2022-10-13T03:31:52.264Z,101459.84
2022-10-13T03:34:20.193Z,101466.06
2022-10-13T03:36:46.679Z,101457.59
2022-10-13T03:39:13.720Z,101453.84
2022-10-13T03:41:40.312Z,101449.09
2022-10-13T03:44:07.572Z,101451.84
2022-10-13T03:46:34.109Z,101444.38
2022-10-13T03:49:00.612Z,101439.41
2022-10-13T03:51:27.031Z,101446.44
2022-10-13T03:53:53.971Z,101441.81
2022-10-13T03:56:23.463Z,101434.78
2022-10-13T03:58:56.760Z,101437.47
2022-10-13T04:01:25.596Z,101444.38
2022-10-13T04:03:54.599Z,101439.69
2022-10-13T04:06:21.823Z,101435.81
2022-10-13T04:08:48.609Z,101429.03
2022-10-13T04:11:16.415Z,101434.72
2022-10-13T04:13:43.428Z,101436.81
2022-10-13T04:16:20.810Z,101435.56
2022-10-13T04:18:52.151Z,101431.00
2022-10-13T04:21:18.670Z,101429.41
2022-10-13T04:23:45.140Z,101432.44
2022-10-13T04:26:17.462Z,101439.00
2022-10-13T04:28:45.278Z,101437.41
2022-10-13T04:31:12.299Z,101427.44
2022-10-13T04:33:38.826Z,101427.59
2022-10-13T04:36:10.531Z,101418.97
2022-10-13T04:38:36.843Z,101422.00
2022-10-13T04:41:05.225Z,101418.53
2022-10-13T04:43:33.157Z,101412.22
2022-10-13T04:46:08.281Z,101416.72
2022-10-13T04:48:34.781Z,101418.53
2022-10-13T04:51:07.546Z,101412.97
2022-10-13T04:53:34.457Z,101414.63
2022-10-13T04:56:03.702Z,101409.53
2022-10-13T04:58:30.671Z,101418.66
2022-10-13T05:00:57.512Z,101413.50
2022-10-13T05:03:24.698Z,101404.91
2022-10-13T05:05:52.929Z,101401.91
2022-10-13T05:08:19.812Z,101410.75
2022-10-13T05:11:02.361Z,101405.19
2022-10-13T05:13:30.463Z,101404.34
2022-10-13T05:15:57.394Z,101404.56
2022-10-13T05:18:24.259Z,101402.00
2022-10-13T05:20:51.073Z,101389.34
2022-10-13T05:23:17.888Z,101390.47
2022-10-13T05:25:44.790Z,101389.78
2022-10-13T05:28:11.480Z,101392.69
2022-10-13T05:30:37.995Z,101388.84
2022-10-13T05:33:04.968Z,101395.38
2022-10-13T05:35:31.441Z,101398.41
2022-10-13T05:37:58.064Z,101398.19
2022-10-13T05:40:24.686Z,101391.78
2022-10-13T05:42:51.406Z,101393.22
2022-10-13T05:45:19.511Z,101392.75
2022-10-13T05:47:46.150Z,101387.44
2022-10-13T05:50:12.773Z,101396.03
2022-10-13T05:52:39.577Z,101386.91
2022-10-13T05:55:10.116Z,101392.00
2022-10-13T05:57:41.114Z,101391.31
2022-10-13T06:00:10.402Z,101392.75
2022-10-13T06:02:48.027Z,101395.44
2022-10-13T06:05:18.399Z,101393.97
2022-10-13T06:07:46.384Z,101399.31
2022-10-13T06:10:13.065Z,101393.13
2022-10-13T06:12:39.810Z,101393.47
2022-10-13T06:15:06.779Z,101392.03
2022-10-13T06:17:37.198Z,101392.50
2022-10-13T06:20:06.072Z,101392.75
2022-10-13T06:22:34.126Z,101394.69
2022-10-13T06:25:00.865Z,101384.75
2022-10-13T06:27:27.312Z,101391.78
2022-10-13T06:29:54.359Z,101391.25
2022-10-13T06:32:21.459Z,101392.00
2022-10-13T06:34:48.218Z,101400.06
2022-10-13T06:37:14.645Z,101403.47
2022-10-13T06:39:41.090Z,101398.69
2022-10-13T06:42:07.889Z,101405.63
2022-10-13T06:44:34.549Z,101398.47
2022-10-13T06:47:03.094Z,101396.34
2022-10-13T06:49:29.962Z,101392.00
2022-10-13T06:51:56.566Z,101404.03
2022-10-13T06:54:23.109Z,101404.50
2022-10-13T06:56:49.521Z,101395.91
2022-10-13T06:59:15.986Z,101390.31
2022-10-13T07:01:42.615Z,101381.38
2022-10-13T07:04:09.858Z,101393.84
2022-10-13T07:06:36.467Z,101398.09
2022-10-13T07:09:07.123Z,101386.09
2022-10-13T07:11:34.439Z,101391.56
2022-10-13T07:16:28.330Z,101378.91
2022-10-13T07:18:54.782Z,101379.31
2022-10-13T07:21:21.678Z,101375.03
2022-10-13T07:23:48.225Z,101378.63
2022-10-13T07:26:16.043Z,101379.41
2022-10-13T07:28:43.547Z,101373.00
2022-10-13T07:31:13.697Z,101372.09
2022-10-13T07:33:42.043Z,101378.25
2022-10-13T07:36:09.389Z,101365.28
2022-10-13T07:38:35.840Z,101369.34
2022-10-13T07:41:04.125Z,101366.13
2022-10-13T07:43:30.607Z,101356.53
2022-10-13T07:46:01.338Z,101362.63
2022-10-13T07:48:28.455Z,101361.06
2022-10-13T07:50:55.030Z,101363.66
2022-10-13T07:53:21.660Z,101367.06
2022-10-13T07:55:48.118Z,101356.94
2022-10-13T07:58:14.620Z,101360.34
2022-10-13T08:00:41.470Z,101356.66
2022-10-13T08:03:07.961Z,101351.53
2022-10-13T08:05:36.869Z,101359.38
2022-10-13T08:08:03.976Z,101361.53
2022-10-13T08:10:30.641Z,101353.53
2022-10-13T08:12:57.115Z,101348.78
2022-10-13T08:15:23.583Z,101341.97
2022-10-13T08:17:50.016Z,101347.47
2022-10-13T08:20:16.529Z,101344.81
2022-10-13T08:22:42.932Z,101343.06
2022-10-13T08:25:09.985Z,101342.09
2022-10-13T08:27:50.199Z,101345.75
2022-10-13T08:30:18.533Z,101342.59
2022-10-13T08:32:45.072Z,101335.63
2022-10-13T08:35:11.868Z,101328.66
2022-10-13T08:37:38.324Z,101339.22
2022-10-13T08:40:05.165Z,101338.56
2022-10-13T08:42:31.731Z,101334.50
2022-10-13T08:48:20.610Z,101335.16
2022-10-13T08:50:51.365Z,101330.69
2022-10-13T08:53:42.354Z,101327.59
2022-10-13T08:56:17.508Z,101325.72
2022-10-13T08:58:44.178Z,101325.09
2022-10-13T09:01:28.004Z,101311.06
2022-10-13T09:04:03.482Z,101311.75
2022-10-13T09:06:37.873Z,101311.06
2022-10-13T09:09:07.568Z,101300.63
2022-10-13T09:11:42.597Z,101302.94
2022-10-13T09:14:22.275Z,101305.91
2022-10-13T09:16:50.324Z,101305.31
2022-10-13T09:19:25.653Z,101310.31
2022-10-13T09:22:21.371Z,101302.06
2022-10-13T09:24:47.998Z,101308.31
2022-10-13T09:27:16.439Z,101311.34
2022-10-13T09:29:44.530Z,101309.22
2022-10-13T09:32:19.517Z,101307.63
2022-10-13T09:34:47.358Z,101313.13
2022-10-13T09:37:23.408Z,101309.19
2022-10-13T09:40:32.684Z,101308.72
2022-10-13T09:43:01.767Z,101310.94
2022-10-13T09:45:30.936Z,101305.06
2022-10-13T09:48:01.694Z,101316.38
2022-10-13T09:50:31.807Z,101311.84
2022-10-13T09:53:21.414Z,101306.78
2022-10-13T09:55:49.638Z,101302.63
2022-10-13T09:58:23.891Z,101307.75
2022-10-13T10:00:52.651Z,101304.78
2022-10-13T10:03:32.541Z,101308.97
2022-10-13T10:06:19.094Z,101298.81
2022-10-13T10:09:03.075Z,101309.88
2022-10-13T10:11:46.591Z,101307.81
2022-10-13T10:14:34.197Z,101304.88
2022-10-13T10:17:15.830Z,101298.09
2022-10-13T10:19:57.866Z,101300.81
2022-10-13T10:22:47.905Z,101290.50
2022-10-13T10:25:20.092Z,101294.72
2022-10-13T10:28:16.510Z,101287.28
2022-10-13T10:31:11.453Z,101279.81
2022-10-13T10:33:49.434Z,101285.97
2022-10-13T10:36:22.398Z,101285.28
2022-10-13T10:38:56.350Z,101279.09
2022-10-13T10:41:45.136Z,101272.94
2022-10-13T10:44:25.011Z,101270.06
2022-10-13T10:46:57.730Z,101252.81
2022-10-13T10:49:31.789Z,101253.97
2022-10-13T10:52:01.657Z,101254.16
2022-10-13T10:54:49.548Z,101253.97
2022-10-13T10:57:19.192Z,101250.53
2022-10-13T11:00:19.837Z,101252.56
2022-10-13T11:03:14.813Z,101248.47
2022-10-13T11:06:16.411Z,101240.09
2022-10-13T11:08:46.705Z,101229.94
2022-10-13T11:11:26.671Z,101231.53
2022-10-13T11:13:55.931Z,101225.50
2022-10-13T11:16:36.024Z,101225.50
2022-10-13T11:19:06.350Z,101223.03
2022-10-13T11:22:00.630Z,101226.38
2022-10-13T11:24:39.529Z,101230.81
2022-10-13T11:27:11.828Z,101228.91
2022-10-13T11:29:44.649Z,101221.28
2022-10-13T11:32:26.417Z,101223.59
2022-10-13T11:35:05.133Z,101215.66
2022-10-13T11:38:05.629Z,101212.38
2022-10-13T11:41:19.687Z,101211.44
2022-10-13T11:43:51.230Z,101211.22
2022-10-13T11:46:20.190Z,101210.03
2022-10-13T11:48:56.779Z,101193.31
2022-10-13T11:51:32.805Z,101180.81
2022-10-13T11:54:35.711Z,101183.06
2022-10-13T11:57:02.696Z,101184.13
2022-10-13T11:59:35.180Z,101185.69
2022-10-13T12:02:10.665Z,101175.09
2022-10-13T12:04:41.556Z,101171.50
2022-10-13T12:07:13.314Z,101165.66
2022-10-13T12:09:52.381Z,101172.47
2022-10-13T12:12:21.389Z,101167.66
2022-10-13T12:14:57.783Z,101173.69
2022-10-13T12:17:26.803Z,101172.22
2022-10-13T12:19:56.589Z,101169.84
2022-10-13T12:22:23.411Z,101177.22
2022-10-13T12:25:07.067Z,101172.97
2022-10-13T12:27:45.835Z,101174.13
2022-10-13T12:30:37.126Z,101172.22
2022-10-13T12:33:17.591Z,101173.19
2022-10-13T12:35:44.020Z,101165.56
2022-10-13T12:38:18.899Z,101177.03
2022-10-13T12:40:50.468Z,101176.84
2022-10-13T12:43:19.359Z,101174.97
2022-10-13T12:45:46.349Z,101178.41
2022-10-13T12:48:32.167Z,101178.09
2022-10-13T12:51:23.036Z,101179.66
2022-10-13T12:53:49.566Z,101185.00
2022-10-13T12:56:26.359Z,101182.38
2022-10-13T12:58:53.285Z,101177.41
2022-10-13T13:01:32.058Z,101170.00
2022-10-13T13:04:28.169Z,101175.50
2022-10-13T13:07:01.770Z,101172.28
2022-10-13T13:09:33.147Z,101177.16
2022-10-13T13:12:15.852Z,101177.28
2022-10-13T13:17:56.555Z,101172.94
2022-10-13T13:20:27.191Z,101179.63
2022-10-13T13:22:54.304Z,101174.56
2022-10-13T13:25:20.841Z,101171.66
2022-10-13T13:27:47.843Z,101172.19
2022-10-13T13:30:17.316Z,101170.41
2022-10-13T13:32:43.879Z,101159.97
2022-10-13T13:35:10.733Z,101161.03
2022-10-13T13:37:38.655Z,101149.91
2022-10-13T13:40:06.696Z,101151.28
2022-10-13T13:42:33.387Z,101149.47
2022-10-13T13:44:59.839Z,101150.22
2022-10-13T13:47:28.248Z,101144.59
2022-10-13T13:49:56.727Z,101149.31
2022-10-13T13:52:25.251Z,101142.19
2022-10-13T13:54:52.554Z,101137.03
2022-10-13T13:57:20.436Z,101140.56
2022-10-13T13:59:47.407Z,101143.88
2022-10-13T14:02:17.540Z,101139.09
2022-10-13T14:04:44.318Z,101129.00
2022-10-13T14:07:11.270Z,101126.41
2022-10-13T14:09:37.825Z,101127.81
2022-10-13T14:12:04.572Z,101122.00
2022-10-13T14:14:31.720Z,101117.44
2022-10-13T14:17:03.503Z,101119.13
2022-10-13T14:19:31.179Z,101110.91
2022-10-13T14:21:57.650Z,101116.19
2022-10-13T14:24:24.212Z,101114.47
2022-10-13T14:26:50.860Z,101118.00
2022-10-13T14:29:17.437Z,101117.94
2022-10-13T14:31:43.899Z,101113.63
2022-10-13T14:34:10.445Z,101121.91
2022-10-13T14:36:36.955Z,101122.97
2022-10-13T14:39:03.734Z,101124.06
2022-10-13T14:41:30.209Z,101115.69
2022-10-13T14:43:57.216Z,101117.44
2022-10-13T14:46:24.188Z,101118.09
2022-10-13T14:48:50.688Z,101114.44
2022-10-13T14:51:17.517Z,101108.63
2022-10-13T14:53:46.054Z,101104.44
2022-10-13T14:56:15.209Z,101101.50
2022-10-13T14:58:41.680Z,101106.59
2022-10-13T15:01:08.132Z,101101.03
2022-10-13T15:03:34.584Z,101096.56
2022-10-13T15:06:01.100Z,101102.97
2022-10-13T15:08:27.485Z,101099.19
2022-10-13T15:11:00.845Z,101101.06
2022-10-13T15:13:27.436Z,101090.53
2022-10-13T15:15:53.905Z,101103.31
2022-10-13T15:18:20.490Z,101096.81
2022-10-13T15:20:47.963Z,101101.50
2022-10-13T15:23:15.546Z,101102.00
2022-10-13T15:25:58.592Z,101115.09
2022-10-13T15:28:28.312Z,101101.41
2022-10-13T15:30:55.025Z,101103.19
2022-10-13T15:33:22.861Z,101102.69
2022-10-13T15:35:50.812Z,101108.66
2022-10-13T15:38:19.454Z,101113.69
2022-10-13T15:40:46.543Z,101101.00
2022-10-13T15:43:13.247Z,101103.44
2022-10-13T15:45:40.038Z,101097.88
2022-10-13T15:48:08.397Z,101103.94
2022-10-13T15:50:38.404Z,101093.50
2022-10-13T15:53:05.099Z,101091.31
2022-10-13T15:55:32.378Z,101102.41
2022-10-13T15:57:58.805Z,101095.16
2022-10-13T16:00:25.447Z,101100.41
2022-10-13T16:02:52.139Z,101102.75
2022-10-13T16:05:19.122Z,101104.91
2022-10-13T16:07:45.787Z,101110.97
2022-10-13T16:10:14.670Z,101113.81
2022-10-13T16:12:48.401Z,101114.34
2022-10-13T16:15:17.366Z,101121.13
2022-10-13T16:17:46.230Z,101111.84
2022-10-13T16:20:13.888Z,101105.13
2022-10-13T16:22:40.325Z,101102.75
2022-10-13T16:25:07.437Z,101103.41
2022-10-13T16:27:33.837Z,101100.09
2022-10-13T16:30:00.301Z,101102.94
2022-10-13T16:32:26.750Z,101105.28
2022-10-13T16:34:53.191Z,101102.09
2022-10-13T16:37:20.064Z,101099.94
2022-10-13T16:39:51.424Z,101089.97
2022-10-13T16:42:18.314Z,101094.88
2022-10-13T16:44:44.724Z,101096.41
2022-10-13T16:47:15.928Z,101094.53
2022-10-13T16:49:44.593Z,101096.06
2022-10-13T16:52:11.105Z,101093.34
2022-10-13T16:54:37.729Z,101084.94
2022-10-13T16:57:04.305Z,101095.41
2022-10-13T16:59:30.773Z,101096.38
2022-10-13T17:01:57.876Z,101092.84
2022-10-13T17:04:24.592Z,101093.19
2022-10-13T17:06:51.066Z,101093.38
2022-10-13T17:09:17.475Z,101091.19
2022-10-13T17:11:43.957Z,101091.34
2022-10-13T17:14:10.912Z,101088.16
2022-10-13T17:16:37.432Z,101088.31
2022-10-13T17:19:04.391Z,101086.31
2022-10-13T17:21:30.833Z,101088.31
2022-10-13T17:23:57.440Z,101085.47
2022-10-13T17:26:23.887Z,101087.66
2022-10-13T17:28:50.521Z,101093.69
2022-10-13T17:31:22.527Z,101087.94
2022-10-13T17:33:49.837Z,101088.78
2022-10-13T17:36:25.355Z,101090.97
2022-10-13T17:38:53.396Z,101088.56
2022-10-13T17:41:20.639Z,101091.66
2022-10-13T17:43:47.785Z,101090.00
2022-10-13T17:49:03.417Z,101089.63
2022-10-13T17:51:29.861Z,101090.13
2022-10-13T17:53:59.010Z,101078.31
2022-10-13T17:56:26.056Z,101086.38
2022-10-13T17:58:53.078Z,101086.38
2022-10-13T18:01:25.619Z,101087.53
2022-10-13T18:03:55.186Z,101081.16
2022-10-13T18:06:22.317Z,101081.16
2022-10-13T18:08:52.592Z,101082.63
2022-10-13T18:11:21.356Z,101079.91
2022-10-13T18:13:48.156Z,101082.41
2022-10-13T18:16:20.485Z,101086.41
2022-10-13T18:18:49.918Z,101075.53
2022-10-13T18:21:19.090Z,101083.91
2022-10-13T18:23:45.809Z,101079.22
2022-10-13T18:26:14.718Z,101082.94
2022-10-13T18:28:45.516Z,101075.81
2022-10-13T18:31:27.518Z,101073.94
2022-10-13T18:33:59.053Z,101069.09
2022-10-13T18:36:31.459Z,101067.78
2022-10-13T18:39:07.366Z,101071.81
2022-10-13T18:41:35.535Z,101074.28
2022-10-13T18:44:03.843Z,101073.81
2022-10-13T18:46:31.935Z,101068.69
2022-10-13T18:48:58.433Z,101065.09
2022-10-13T18:51:25.336Z,101073.06
2022-10-13T18:53:51.840Z,101067.53
2022-10-13T18:56:26.923Z,101060.84
2022-10-13T18:58:59.288Z,101057.50
2022-10-13T19:01:28.218Z,101053.63
2022-10-13T19:03:54.783Z,101062.50
2022-10-13T19:06:26.655Z,101058.94
2022-10-13T19:09:05.257Z,101066.53
2022-10-13T19:11:32.480Z,101057.75
2022-10-13T19:14:00.136Z,101066.31
2022-10-13T19:16:29.042Z,101052.88
2022-10-13T19:18:56.036Z,101056.53
2022-10-13T19:21:23.490Z,101053.25
2022-10-13T19:23:50.369Z,101048.94
2022-10-13T19:26:25.867Z,101047.47
2022-10-13T19:28:56.911Z,101058.25
2022-10-13T19:31:26.189Z,101047.28
2022-10-13T19:33:53.151Z,101047.16
2022-10-13T19:36:26.158Z,101050.81
2022-10-13T19:38:53.526Z,101046.84
2022-10-13T19:41:20.236Z,101047.34
2022-10-13T19:43:46.700Z,101041.06
2022-10-13T19:46:13.300Z,101047.47
2022-10-13T19:48:39.913Z,101048.94
2022-10-13T19:51:09.069Z,101047.56
2022-10-13T19:53:36.652Z,101051.19
2022-10-13T19:56:03.193Z,101049.72
2022-10-13T19:58:30.262Z,101055.56
2022-10-13T20:01:02.026Z,101052.41
2022-10-13T20:03:28.513Z,101056.03
2022-10-13T20:05:55.003Z,101051.47
2022-10-13T20:08:21.436Z,101050.56
2022-10-13T20:10:48.075Z,101049.06
2022-10-13T20:13:14.568Z,101057.28
2022-10-13T20:15:43.063Z,101055.63
2022-10-13T20:18:12.986Z,101050.53
2022-10-13T20:20:41.303Z,101048.25
2022-10-13T20:23:09.158Z,101060.28
2022-10-13T20:25:37.777Z,101049.53
2022-10-13T20:28:05.370Z,101056.66
2022-10-13T20:30:32.595Z,101053.28
2022-10-13T20:32:59.071Z,101052.69
2022-10-13T20:35:25.621Z,101056.56
2022-10-13T20:37:52.074Z,101059.22
2022-10-13T20:40:18.477Z,101049.84
2022-10-13T20:42:50.163Z,101045.78
2022-10-13T20:45:16.510Z,101045.03
2022-10-13T20:47:42.944Z,101042.66
2022-10-13T20:50:09.559Z,101045.38
2022-10-13T20:52:37.567Z,101045.84
2022-10-13T20:55:04.309Z,101044.78
2022-10-13T20:57:30.749Z,101049.13
2022-10-13T20:59:57.184Z,101047.50
2022-10-13T21:02:23.661Z,101053.78
2022-10-13T21:04:50.058Z,101039.03
2022-10-13T21:07:16.544Z,101045.63
2022-10-13T21:09:43.073Z,101050.44
2022-10-13T21:12:09.513Z,101051.28
2022-10-13T21:14:35.965Z,101051.31
2022-10-13T21:17:02.370Z,101049.16
2022-10-13T21:19:29.270Z,101047.31
2022-10-13T21:21:55.730Z,101051.09
2022-10-13T21:24:22.351Z,101043.66
2022-10-13T21:26:48.737Z,101046.47
2022-10-13T21:29:15.268Z,101050.66
2022-10-13T21:31:42.034Z,101039.22
2022-10-13T21:34:10.178Z,101053.09
2022-10-13T21:36:36.714Z,101044.53
2022-10-13T21:39:05.017Z,101052.16
2022-10-13T21:41:31.608Z,101053.00
2022-10-13T21:43:58.461Z,101047.88
2022-10-13T21:46:27.746Z,101043.88
2022-10-13T21:48:59.285Z,101043.66
2022-10-13T21:51:39.372Z,101053.38
2022-10-13T21:54:12.131Z,101050.50
2022-10-13T21:56:39.739Z,101057.59
2022-10-13T21:59:06.834Z,101052.94
2022-10-13T22:01:33.670Z,101055.84
2022-10-13T22:04:01.318Z,101054.47
2022-10-13T22:06:29.421Z,101057.84
2022-10-13T22:08:57.573Z,101053.38
2022-10-13T22:11:26.253Z,101057.03
2022-10-13T22:13:52.786Z,101053.13
2022-10-13T22:16:22.165Z,101054.91
2022-10-13T22:18:51.072Z,101052.22
2022-10-13T22:21:21.267Z,101053.06
2022-10-13T22:23:48.019Z,101050.78
2022-10-13T22:26:16.930Z,101048.25
2022-10-13T22:28:44.237Z,101055.75
2022-10-13T22:31:13.329Z,101044.91
2022-10-13T22:33:42.179Z,101050.44
2022-10-13T22:36:19.902Z,101047.75
2022-10-13T22:38:47.694Z,101042.09
2022-10-13T22:41:15.697Z,101037.88
2022-10-13T22:43:44.344Z,101044.69
2022-10-13T22:46:12.088Z,101042.50
2022-10-13T22:48:40.959Z,101043.22
2022-10-13T22:51:08.003Z,101043.50
2022-10-13T22:53:34.673Z,101042.66
2022-10-13T22:56:09.081Z,101039.13
2022-10-13T22:58:35.566Z,101041.22
2022-10-13T23:01:14.466Z,101031.63
2022-10-13T23:03:41.889Z,101033.28
2022-10-13T23:06:13.545Z,101031.16
2022-10-13T23:08:39.886Z,101029.00
2022-10-13T23:11:06.319Z,101025.59
2022-10-13T23:13:32.803Z,101023.25
2022-10-13T23:16:04.257Z,101027.75
2022-10-13T23:18:30.741Z,101031.03
2022-10-13T23:20:57.286Z,101025.09
2022-10-13T23:23:23.842Z,101019.56
2022-10-13T23:25:50.461Z,101018.72
2022-10-13T23:28:17.099Z,101026.50
2022-10-13T23:30:43.661Z,101019.94
2022-10-13T23:33:10.057Z,101023.44
2022-10-13T23:35:36.454Z,101020.59
2022-10-13T23:38:02.932Z,101025.13
2022-10-13T23:40:29.338Z,101018.38
2022-10-13T23:42:55.724Z,101015.31
2022-10-13T23:45:22.162Z,101020.34
2022-10-13T23:47:48.590Z,101020.78
2022-10-13T23:50:14.983Z,101020.06
2022-10-13T23:52:41.417Z,101018.69
2022-10-13T23:55:08.263Z,101010.50
2022-10-13T23:57:34.890Z,101021.28
